Time;durP1;ratioP1;P1;durP2;ratioP2;P2;SDS_P1;SDS_P2;PMS_P1;PMS_P2;Temp;Humidity;BMP_temperature;BMP_pressure;BME280_temperature;BME280_humidity;BME280_pressure;Samples;Min_cycle;Max_cycle;Signal;HPM_P1;HPM_P2
2022/10/01 00:00:55;;;;;;;4.60;2.10;;;;;;;;;;10076951;29;20539;-68
2022/10/01 00:06:00;;;;;;;2.58;1.88;;;;;;;;;;10080672;28;20066;-69
2022/10/01 00:11:00;;;;;;;4.57;2.13;;;;;;;;;;10080253;28;20066;-68
2022/10/01 00:15:59;;;;;;;3.75;2.17;;;;;;;;;;10079851;29;20086;-68
2022/10/01 00:20:57;;;;;;;3.78;2.00;;;;;;;;;;10080542;29;20091;-68
2022/10/01 00:25:55;;;;;;;3.65;1.75;;;;;;;;;;10080404;28;20200;-68
2022/10/01 00:30:55;;;;;;;5.57;1.80;;;;;;;;;;10080060;29;20091;-68
2022/10/01 00:35:54;;;;;;;3.05;2.53;;;;;;;;;;10080776;28;20051;-68
2022/10/01 00:40:52;;;;;;;5.10;2.85;;;;;;;;;;10079987;29;20089;-68
2022/10/01 00:45:54;;;;;;;7.05;2.28;;;;;;;;;;10078856;28;20092;-67
2022/10/01 00:50:53;;;;;;;3.47;1.77;;;;;;;;;;10080112;28;20055;-68
2022/10/01 00:55:56;;;;;;;3.28;1.92;;;;;;;;;;10078445;29;20102;-68
2022/10/01 01:00:55;;;;;;;8.73;2.30;;;;;;;;;;10079716;29;20055;-69
2022/10/01 01:05:56;;;;;;;4.88;1.92;;;;;;;;;;10078175;29;20059;-69
2022/10/01 01:11:00;;;;;;;3.65;2.00;;;;;;;;;;10078251;29;20086;-68
2022/10/01 01:16:03;;;;;;;5.20;2.30;;;;;;;;;;10078986;28;20109;-68
2022/10/01 01:21:22;;;;;;;2.60;2.13;;;;;;;;;;10078337;28;20090;-68
2022/10/01 01:26:27;;;;;;;6.15;2.22;;;;;;;;;;10075131;29;20109;-69
2022/10/01 01:31:30;;;;;;;5.63;2.28;;;;;;;;;;10077992;29;20468;-69
2022/10/01 01:36:31;;;;;;;5.50;2.72;;;;;;;;;;10077619;28;20059;-68
2022/10/01 01:41:33;;;;;;;2.88;2.15;;;;;;;;;;10078896;28;20186;-68
2022/10/01 01:46:34;;;;;;;6.38;1.98;;;;;;;;;;10077310;28;20063;-68
2022/10/01 01:51:35;;;;;;;2.80;2.33;;;;;;;;;;10077189;28;20074;-65
2022/10/01 01:56:34;;;;;;;3.63;2.10;;;;;;;;;;10077784;28;20117;-66
2022/10/01 02:01:36;;;;;;;4.05;2.05;;;;;;;;;;10076456;29;20106;-66
2022/10/01 02:06:41;;;;;;;3.88;2.13;;;;;;;;;;10075788;29;20059;-67
2022/10/01 02:11:43;;;;;;;5.03;2.20;;;;;;;;;;10076244;28;20090;-66
2022/10/01 02:16:47;;;;;;;2.78;2.35;;;;;;;;;;10075868;28;20047;-65
2022/10/01 02:21:50;;;;;;;4.68;2.35;;;;;;;;;;10087373;28;20583;-67
2022/10/01 02:26:49;;;;;;;3.03;2.30;;;;;;;;;;10075334;29;20062;-66
2022/10/01 02:31:52;;;;;;;5.88;2.15;;;;;;;;;;10075592;28;20465;-66
2022/10/01 02:36:51;;;;;;;5.07;2.22;;;;;;;;;;10074159;29;20051;-66
2022/10/01 02:41:50;;;;;;;3.38;2.28;;;;;;;;;;10075522;29;20087;-67
2022/10/01 02:46:52;;;;;;;8.70;2.47;;;;;;;;;;10073834;28;20121;-66
2022/10/01 02:51:54;;;;;;;4.80;2.10;;;;;;;;;;10071543;29;20079;-65
2022/10/01 03:02:09;;;;;;;5.25;2.40;;;;;;;;;;10072662;29;20083;-66
2022/10/01 03:07:08;;;;;;;5.85;2.65;;;;;;;;;;10071821;29;20536;-65
2022/10/01 03:12:07;;;;;;;3.47;2.08;;;;;;;;;;10070604;29;20082;-67
2022/10/01 03:17:06;;;;;;;2.35;2.03;;;;;;;;;;10072140;29;20090;-66
2022/10/01 03:22:06;;;;;;;2.05;1.83;;;;;;;;;;10074679;29;20090;-66
2022/10/01 03:27:04;;;;;;;6.63;2.20;;;;;;;;;;10072406;29;20090;-66
2022/10/01 03:32:02;;;;;;;3.58;2.13;;;;;;;;;;10056276;29;20051;-66
2022/10/01 03:37:00;;;;;;;5.53;2.63;;;;;;;;;;10074383;29;20086;-66
2022/10/01 03:42:00;;;;;;;2.55;2.30;;;;;;;;;;10074647;29;20085;-66
2022/10/01 03:46:58;;;;;;;3.67;2.60;;;;;;;;;;10078750;28;20083;-67
2022/10/01 03:51:57;;;;;;;4.40;3.00;;;;;;;;;;10081367;29;20059;-67
2022/10/01 03:56:55;;;;;;;3.38;2.15;;;;;;;;;;10080730;29;20062;-67
2022/10/01 04:01:54;;;;;;;3.75;2.60;;;;;;;;;;10081795;29;20083;-67
2022/10/01 04:06:53;;;;;;;5.47;2.38;;;;;;;;;;10079999;29;20086;-66
2022/10/01 04:11:51;;;;;;;3.72;2.20;;;;;;;;;;10080056;29;20087;-66
2022/10/01 04:16:51;;;;;;;3.13;2.00;;;;;;;;;;10080485;29;20090;-66
2022/10/01 04:21:51;;;;;;;3.50;2.42;;;;;;;;;;10081132;29;20559;-67
2022/10/01 04:26:50;;;;;;;3.88;2.60;;;;;;;;;;10080355;29;20075;-67
2022/10/01 04:31:49;;;;;;;7.20;5.35;;;;;;;;;;10078811;29;20439;-67
2022/10/01 04:36:47;;;;;;;4.53;3.30;;;;;;;;;;10077776;29;20109;-66
2022/10/01 04:41:47;;;;;;;8.93;4.30;;;;;;;;;;10078633;29;20083;-65
2022/10/01 04:46:46;;;;;;;4.93;2.50;;;;;;;;;;10078574;29;20078;-66
2022/10/01 04:51:44;;;;;;;5.35;2.85;;;;;;;;;;10079379;28;20098;-66
2022/10/01 04:56:42;;;;;;;4.40;2.92;;;;;;;;;;10078174;28;20062;-67
2022/10/01 05:01:42;;;;;;;3.75;3.00;;;;;;;;;;10078016;29;20090;-66
2022/10/01 05:06:41;;;;;;;4.93;2.95;;;;;;;;;;10077716;29;20526;-65
2022/10/01 05:11:39;;;;;;;8.73;4.63;;;;;;;;;;10078798;29;20083;-67
2022/10/01 05:16:38;;;;;;;3.30;2.60;;;;;;;;;;10077549;29;20529;-66
2022/10/01 05:21:38;;;;;;;5.05;3.00;;;;;;;;;;10077919;29;20087;-65
2022/10/01 05:26:38;;;;;;;11.23;4.32;;;;;;;;;;10077356;28;20105;-66
2022/10/01 05:31:36;;;;;;;14.82;5.55;;;;;;;;;;10070520;28;20095;-67
2022/10/01 05:36:35;;;;;;;8.60;4.88;;;;;;;;;;10048719;29;20836;-66
2022/10/01 05:41:35;;;;;;;9.82;4.55;;;;;;;;;;10056360;28;20532;-66
2022/10/01 05:46:34;;;;;;;12.85;5.57;;;;;;;;;;10072930;28;20083;-66
2022/10/01 05:51:32;;;;;;;21.23;5.80;;;;;;;;;;10059174;28;20652;-66
2022/10/01 05:56:31;;;;;;;6.72;4.25;;;;;;;;;;10049766;29;20083;-67
2022/10/01 06:01:31;;;;;;;8.88;4.63;;;;;;;;;;10057104;29;20083;-67
2022/10/01 06:06:30;;;;;;;11.02;5.18;;;;;;;;;;10056828;29;20114;-67
2022/10/01 06:11:31;;;;;;;11.75;6.03;;;;;;;;;;10071257;28;20086;-66
2022/10/01 06:16:31;;;;;;;13.40;5.03;;;;;;;;;;10054375;29;20058;-66
2022/10/01 06:21:30;;;;;;;15.18;5.00;;;;;;;;;;10057665;29;20079;-66
2022/10/01 06:26:30;;;;;;;15.50;4.90;;;;;;;;;;10059503;29;20086;-66
2022/10/01 06:31:29;;;;;;;15.07;5.72;;;;;;;;;;10042058;29;20537;-66
2022/10/01 06:36:29;;;;;;;14.85;5.43;;;;;;;;;;10049393;28;20629;-66
2022/10/01 06:41:27;;;;;;;16.08;7.20;;;;;;;;;;10075567;29;20090;-66
2022/10/01 06:46:27;;;;;;;12.82;6.15;;;;;;;;;;10074648;28;20505;-65
2022/10/01 06:56:40;;;;;;;10.40;5.70;;;;;;;;;;10063353;29;20801;-67
2022/10/01 07:01:38;;;;;;;12.93;6.05;;;;;;;;;;10070408;29;20087;-66
2022/10/01 07:06:37;;;;;;;12.70;5.88;;;;;;;;;;10073455;29;20075;-66
2022/10/01 07:11:38;;;;;;;12.48;5.65;;;;;;;;;;10075166;29;20505;-67
2022/10/01 07:16:39;;;;;;;17.08;5.78;;;;;;;;;;10072789;28;20579;-67
2022/10/01 07:21:37;;;;;;;11.35;5.68;;;;;;;;;;10079088;28;20089;-67
2022/10/01 07:26:35;;;;;;;12.10;4.80;;;;;;;;;;10082508;29;20055;-66
2022/10/01 07:31:34;;;;;;;4.10;2.35;;;;;;;;;;10080993;28;20047;-67
2022/10/01 07:36:34;;;;;;;7.47;2.72;;;;;;;;;;10066101;29;20321;-66
2022/10/01 07:41:38;;;;;;;8.23;3.10;;;;;;;;;;10079717;29;20083;-65
2022/10/01 07:46:36;;;;;;;15.10;4.78;;;;;;;;;;10063613;28;20059;-67
2022/10/01 07:51:36;;;;;;;29.35;6.20;;;;;;;;;;10079826;28;20075;-67
2022/10/01 07:56:35;;;;;;;18.45;6.53;;;;;;;;;;10062291;29;20093;-65
2022/10/01 08:01:33;;;;;;;4.90;3.65;;;;;;;;;;10076884;29;20086;-62
2022/10/01 08:06:32;;;;;;;12.70;4.85;;;;;;;;;;10079084;29;20094;-64
2022/10/01 08:11:31;;;;;;;16.15;6.72;;;;;;;;;;10081977;28;20074;-69
2022/10/01 08:16:33;;;;;;;21.27;7.22;;;;;;;;;;10081644;28;20551;-68
2022/10/01 08:21:31;;;;;;;14.43;8.02;;;;;;;;;;10080955;28;20078;-67
2022/10/01 08:26:32;;;;;;;23.05;8.02;;;;;;;;;;10098872;28;20090;-68
2022/10/01 08:31:30;;;;;;;20.55;6.57;;;;;;;;;;10086728;28;20104;-68
2022/10/01 08:36:29;;;;;;;123.15;67.32;;;;;;;;;;10066421;28;20085;-67
2022/10/01 08:41:37;;;;;;;12.73;6.63;;;;;;;;;;10083450;28;20105;-68
2022/10/01 08:46:37;;;;;;;19.83;6.95;;;;;;;;;;10086461;28;20139;-68
2022/10/01 08:51:38;;;;;;;15.88;6.00;;;;;;;;;;10084775;28;20402;-67
2022/10/01 08:56:40;;;;;;;11.25;6.25;;;;;;;;;;10082752;28;20087;-69
2022/10/01 09:01:39;;;;;;;3.17;2.53;;;;;;;;;;10077839;28;20082;-68
2022/10/01 09:06:37;;;;;;;6.38;2.55;;;;;;;;;;10077016;28;20114;-68
2022/10/01 09:11:43;;;;;;;4.70;2.08;;;;;;;;;;10066707;28;20058;-67
2022/10/01 09:16:51;;;;;;;3.70;3.03;;;;;;;;;;10079675;28;20086;-69
2022/10/01 09:21:54;;;;;;;4.25;2.70;;;;;;;;;;10082278;28;20086;-70
2022/10/01 09:26:54;;;;;;;13.98;3.95;;;;;;;;;;10086042;28;20121;-69
2022/10/01 09:31:53;;;;;;;6.63;5.18;;;;;;;;;;10088276;28;20079;-68
2022/10/01 09:36:56;;;;;;;13.40;9.38;;;;;;;;;;10083710;28;20091;-69
2022/10/01 09:41:56;;;;;;;19.30;7.30;;;;;;;;;;10086030;28;20083;-68
2022/10/01 09:46:55;;;;;;;9.38;5.32;;;;;;;;;;10083304;28;20101;-68
2022/10/01 09:51:55;;;;;;;15.68;7.80;;;;;;;;;;10070356;28;20086;-67
2022/10/01 09:56:55;;;;;;;4.57;3.75;;;;;;;;;;10085468;28;20078;-67
2022/10/01 10:01:56;;;;;;;5.45;3.25;;;;;;;;;;10091437;28;20521;-68
2022/10/01 10:06:59;;;;;;;4.18;3.05;;;;;;;;;;10076621;28;20540;-68
2022/10/01 10:11:58;;;;;;;5.57;2.93;;;;;;;;;;10081988;28;20094;-67
2022/10/01 10:16:58;;;;;;;9.85;4.05;;;;;;;;;;10076985;28;20081;-69
2022/10/01 10:21:58;;;;;;;10.68;4.68;;;;;;;;;;10081039;28;20414;-68
2022/10/01 10:26:58;;;;;;;10.80;5.22;;;;;;;;;;10075559;28;20083;-68
2022/10/01 10:31:58;;;;;;;8.45;5.40;;;;;;;;;;10079481;28;20332;-68
2022/10/01 10:36:57;;;;;;;8.50;5.70;;;;;;;;;;10075276;28;20102;-67
2022/10/01 10:41:57;;;;;;;8.27;5.43;;;;;;;;;;10081603;28;20083;-68
2022/10/01 10:46:59;;;;;;;10.43;5.40;;;;;;;;;;10077214;28;20094;-68
2022/10/01 10:52:00;;;;;;;7.72;4.78;;;;;;;;;;10081817;28;20131;-69
2022/10/01 10:57:01;;;;;;;14.30;4.82;;;;;;;;;;10087332;28;20082;-69
2022/10/01 11:02:00;;;;;;;14.43;5.32;;;;;;;;;;10089409;28;20097;-69
2022/10/01 11:07:01;;;;;;;10.48;4.50;;;;;;;;;;10089001;28;20079;-68
2022/10/01 11:12:04;;;;;;;10.38;4.15;;;;;;;;;;10087165;28;20089;-68
2022/10/01 11:17:17;;;;;;;12.10;4.30;;;;;;;;;;10090827;28;20082;-68
2022/10/01 11:22:25;;;;;;;11.00;5.03;;;;;;;;;;10087436;28;20477;-69
2022/10/01 11:27:26;;;;;;;5.35;4.20;;;;;;;;;;10089068;28;20071;-69
2022/10/01 11:32:33;;;;;;;10.68;5.90;;;;;;;;;;10098757;28;20075;-68
2022/10/01 11:37:39;;;;;;;42.63;17.17;;;;;;;;;;10086415;28;20074;-67
2022/10/01 11:42:37;;;;;;;10.73;3.95;;;;;;;;;;10091969;28;20136;-68
2022/10/01 11:47:36;;;;;;;10.52;4.28;;;;;;;;;;10096014;28;20082;-68
2022/10/01 11:52:38;;;;;;;7.18;3.70;;;;;;;;;;10092369;28;20074;-67
2022/10/01 12:02:54;;;;;;;10.88;4.18;;;;;;;;;;10081242;28;20533;-68
2022/10/01 12:07:56;;;;;;;13.45;3.97;;;;;;;;;;10082287;28;20082;-69
2022/10/01 12:12:56;;;;;;;6.93;3.92;;;;;;;;;;10076981;28;20549;-68
2022/10/01 12:18:00;;;;;;;10.05;4.40;;;;;;;;;;10086577;28;20112;-69
2022/10/01 12:23:04;;;;;;;9.30;4.32;;;;;;;;;;10085108;28;20087;-68
2022/10/01 12:28:04;;;;;;;10.68;5.05;;;;;;;;;;10063487;28;20414;-67
2022/10/01 12:33:12;;;;;;;14.90;6.15;;;;;;;;;;10086242;28;20078;-68
2022/10/01 12:38:20;;;;;;;13.38;5.60;;;;;;;;;;10085015;28;20086;-68
2022/10/01 12:43:32;;;;;;;13.18;6.25;;;;;;;;;;10083918;28;20501;-68
2022/10/01 12:48:34;;;;;;;11.23;5.32;;;;;;;;;;10068370;28;20055;-68
2022/10/01 12:53:39;;;;;;;17.52;5.43;;;;;;;;;;10084395;28;20055;-68
2022/10/01 12:58:55;;;;;;;14.82;7.93;;;;;;;;;;10084876;28;20071;-69
2022/10/01 13:04:08;;;;;;;15.82;8.32;;;;;;;;;;10083660;28;20082;-68
2022/10/01 13:09:11;;;;;;;11.80;5.68;;;;;;;;;;10072565;28;20086;-69
2022/10/01 13:14:10;;;;;;;11.70;6.05;;;;;;;;;;10084179;28;20616;-69
2022/10/01 13:19:13;;;;;;;10.98;5.03;;;;;;;;;;10083694;28;20082;-68
2022/10/01 13:24:16;;;;;;;8.90;5.30;;;;;;;;;;10083513;28;20087;-68
2022/10/01 13:29:18;;;;;;;10.60;5.30;;;;;;;;;;10084423;28;20074;-69
2022/10/01 13:34:25;;;;;;;9.90;6.75;;;;;;;;;;10083318;28;20087;-67
2022/10/01 13:39:24;;;;;;;13.50;5.85;;;;;;;;;;10080811;28;20093;-69
2022/10/01 13:44:32;;;;;;;14.00;6.93;;;;;;;;;;10080551;28;20082;-69
2022/10/01 13:49:32;;;;;;;14.50;7.53;;;;;;;;;;10083808;28;20090;-68
2022/10/01 13:54:34;;;;;;;10.50;5.65;;;;;;;;;;10082215;28;20079;-68
2022/10/01 13:59:34;;;;;;;7.72;5.45;;;;;;;;;;10082639;28;20075;-68
2022/10/01 14:04:35;;;;;;;7.72;5.68;;;;;;;;;;10082399;28;20504;-68
2022/10/01 14:09:37;;;;;;;7.88;5.65;;;;;;;;;;10083099;28;20074;-68
2022/10/01 14:19:52;;;;;;;9.73;4.15;;;;;;;;;;10071116;28;20071;-68
2022/10/01 14:25:04;;;;;;;6.10;3.83;;;;;;;;;;10081563;28;20074;-67
2022/10/01 14:30:05;;;;;;;6.75;4.13;;;;;;;;;;10073784;28;20093;-73
2022/10/01 14:35:19;;;;;;;7.13;5.75;;;;;;;;;;10079218;28;20097;-73
2022/10/01 14:40:20;;;;;;;13.80;4.63;;;;;;;;;;10080995;28;20074;-73
2022/10/01 14:45:19;;;;;;;11.45;4.88;;;;;;;;;;10081300;28;20499;-72
2022/10/01 14:50:19;;;;;;;7.07;5.28;;;;;;;;;;10081026;28;20082;-73
2022/10/01 14:55:21;;;;;;;7.95;4.65;;;;;;;;;;10080494;28;20066;-73
2022/10/01 15:00:20;;;;;;;9.35;4.97;;;;;;;;;;10080487;28;20158;-72
2022/10/01 15:05:20;;;;;;;11.50;5.50;;;;;;;;;;10079432;28;20501;-73
2022/10/01 15:10:22;;;;;;;7.30;4.95;;;;;;;;;;10080159;28;20043;-72
2022/10/01 15:15:24;;;;;;;7.93;4.22;;;;;;;;;;10080299;28;20140;-73
2022/10/01 15:20:22;;;;;;;11.00;5.50;;;;;;;;;;10080183;28;20085;-74
2022/10/01 15:25:23;;;;;;;9.98;4.72;;;;;;;;;;10080743;28;20086;-73
2022/10/01 15:30:23;;;;;;;9.73;5.03;;;;;;;;;;10080255;28;20144;-73
2022/10/01 15:35:22;;;;;;;17.42;4.63;;;;;;;;;;10079521;28;20475;-73
2022/10/01 15:40:25;;;;;;;11.02;4.88;;;;;;;;;;10080945;28;20066;-72
2022/10/01 15:45:24;;;;;;;8.20;3.65;;;;;;;;;;10086886;28;20089;-73
2022/10/01 15:50:23;;;;;;;27.67;7.68;;;;;;;;;;10085753;28;20162;-72
2022/10/01 15:55:28;;;;;;;10.00;4.80;;;;;;;;;;10082845;28;20071;-73
2022/10/01 16:00:28;;;;;;;5.65;3.00;;;;;;;;;;10083159;28;20082;-73
2022/10/01 16:05:28;;;;;;;9.82;3.75;;;;;;;;;;10086666;28;20089;-72
2022/10/01 16:10:34;;;;;;;9.10;3.38;;;;;;;;;;10073691;28;20506;-71
2022/10/01 16:15:32;;;;;;;7.50;3.95;;;;;;;;;;10094756;28;20101;-71
2022/10/01 16:20:35;;;;;;;7.45;3.40;;;;;;;;;;10090396;28;20078;-72
2022/10/01 16:25:43;;;;;;;11.77;4.47;;;;;;;;;;10098960;28;20082;-71
2022/10/01 16:30:41;;;;;;;6.10;3.72;;;;;;;;;;10062972;28;20149;-70
2022/10/01 16:35:43;;;;;;;16.48;5.40;;;;;;;;;;10078293;28;20086;-71
2022/10/01 16:40:43;;;;;;;10.57;6.15;;;;;;;;;;10085435;28;20085;-72
2022/10/01 16:45:42;;;;;;;16.90;6.20;;;;;;;;;;10082531;28;20108;-71
2022/10/01 16:50:41;;;;;;;11.57;5.18;;;;;;;;;;10080918;28;20071;-71
2022/10/01 16:55:39;;;;;;;11.75;5.70;;;;;;;;;;10084676;28;20551;-72
2022/10/01 17:00:39;;;;;;;8.13;4.68;;;;;;;;;;10094247;28;20074;-73
2022/10/01 17:05:38;;;;;;;7.35;4.53;;;;;;;;;;10074691;28;21343;-73
2022/10/01 17:10:37;;;;;;;4.80;3.67;;;;;;;;;;10090972;28;20089;-72
2022/10/01 17:15:36;;;;;;;4.55;3.10;;;;;;;;;;10074836;28;20078;-72
2022/10/01 17:20:36;;;;;;;4.85;2.92;;;;;;;;;;10069456;28;20484;-72
2022/10/01 17:25:37;;;;;;;9.45;3.47;;;;;;;;;;10079846;28;20086;-72
2022/10/01 17:30:39;;;;;;;10.40;4.85;;;;;;;;;;10079508;28;20086;-73
2022/10/01 17:35:44;;;;;;;16.55;5.60;;;;;;;;;;10082704;28;20091;-71
2022/10/01 17:40:44;;;;;;;8.02;3.90;;;;;;;;;;10077305;28;20480;-73
2022/10/01 17:45:42;;;;;;;6.28;3.65;;;;;;;;;;10081063;28;20075;-72
2022/10/01 17:50:43;;;;;;;6.20;2.75;;;;;;;;;;10083815;28;20093;-73
2022/10/01 17:55:43;;;;;;;6.07;3.20;;;;;;;;;;10084482;28;20083;-72
2022/10/01 18:00:41;;;;;;;9.23;3.58;;;;;;;;;;10082324;28;20085;-70
2022/10/01 18:05:41;;;;;;;23.27;14.68;;;;;;;;;;10081357;28;20082;-71
2022/10/01 18:10:40;;;;;;;10.23;3.55;;;;;;;;;;10076766;28;20123;-72
2022/10/01 18:15:44;;;;;;;10.85;2.30;;;;;;;;;;10063571;28;20094;-72
2022/10/01 18:20:44;;;;;;;11.18;3.95;;;;;;;;;;10061575;28;20469;-73
2022/10/01 18:25:44;;;;;;;7.82;2.40;;;;;;;;;;10076613;28;20106;-73
2022/10/01 18:30:42;;;;;;;7.85;2.83;;;;;;;;;;10057030;28;20485;-72
2022/10/01 18:35:42;;;;;;;9.52;3.33;;;;;;;;;;10076956;28;20078;-71
2022/10/01 18:40:43;;;;;;;13.32;3.13;;;;;;;;;;10079647;28;20070;-73
2022/10/01 18:45:55;;;;;;;7.85;2.75;;;;;;;;;;10073454;28;20086;-73
2022/10/01 18:50:57;;;;;;;10.23;3.30;;;;;;;;;;10074958;28;20074;-73
2022/10/01 18:56:03;;;;;;;3.63;2.13;;;;;;;;;;10075131;28;20551;-72
2022/10/01 19:01:06;;;;;;;8.27;2.58;;;;;;;;;;10076825;28;20071;-73
2022/10/01 19:06:12;;;;;;;5.43;2.72;;;;;;;;;;10077028;28;20094;-73
2022/10/01 19:11:13;;;;;;;4.10;2.40;;;;;;;;;;10077552;28;20086;-73
2022/10/01 19:16:20;;;;;;;5.50;2.55;;;;;;;;;;10075557;28;20078;-74
2022/10/01 19:21:18;;;;;;;;;;;;;;;;;;10076570;28;20499;-78
2022/10/01 19:26:24;;;;;;;10.63;3.65;;;;;;;;;;10080467;28;19957;-75
2022/10/01 19:31:27;;;;;;;8.30;4.68;;;;;;;;;;10082971;28;20105;-76
2022/10/01 19:36:28;;;;;;;7.70;2.53;;;;;;;;;;10087330;28;20047;-76
2022/10/01 19:41:35;;;;;;;7.57;3.10;;;;;;;;;;10085905;28;20736;-76
2022/10/01 19:46:36;;;;;;;12.98;3.63;;;;;;;;;;10091503;28;20079;-75
2022/10/01 19:51:36;;;;;;;7.47;3.80;;;;;;;;;;10087508;28;20097;-77
2022/10/01 19:56:36;;;;;;;8.15;3.30;;;;;;;;;;10085363;28;20076;-76
2022/10/01 20:01:38;;;;;;;7.63;3.92;;;;;;;;;;10081199;28;20101;-71
2022/10/01 20:06:37;;;;;;;9.60;4.70;;;;;;;;;;10081830;28;20071;-71
2022/10/01 20:11:39;;;;;;;8.43;4.97;;;;;;;;;;10079471;28;20075;-71
2022/10/01 20:16:42;;;;;;;5.47;3.45;;;;;;;;;;10068575;28;20058;-70
2022/10/01 20:21:44;;;;;;;6.70;3.28;;;;;;;;;;10083199;28;20129;-71
2022/10/01 20:26:46;;;;;;;8.73;4.40;;;;;;;;;;10082499;28;20070;-71
2022/10/01 20:31:50;;;;;;;10.93;4.05;;;;;;;;;;10082436;28;20067;-71
2022/10/01 20:36:55;;;;;;;9.85;3.67;;;;;;;;;;10086048;28;20101;-71
2022/10/01 20:41:55;;;;;;;9.93;3.75;;;;;;;;;;10083700;28;20102;-70
2022/10/01 20:46:58;;;;;;;11.07;3.78;;;;;;;;;;10073394;28;20091;-69
2022/10/01 20:51:59;;;;;;;8.50;4.72;;;;;;;;;;10079227;29;20079;-69
2022/10/01 20:57:01;;;;;;;5.22;4.15;;;;;;;;;;10062894;29;20508;-69
2022/10/01 21:02:05;;;;;;;8.23;4.15;;;;;;;;;;10077718;28;20378;-70
2022/10/01 21:07:09;;;;;;;5.70;4.35;;;;;;;;;;10064564;29;20071;-69
2022/10/01 21:12:16;;;;;;;5.13;3.70;;;;;;;;;;10048524;29;20052;-70
2022/10/01 21:17:23;;;;;;;7.82;3.65;;;;;;;;;;10039350;29;20102;-69
2022/10/01 21:22:27;;;;;;;4.82;3.90;;;;;;;;;;10040523;29;20060;-68
2022/10/01 21:27:43;;;;;;;5.63;4.15;;;;;;;;;;10040076;29;20091;-68
2022/10/01 21:32:57;;;;;;;15.32;3.95;;;;;;;;;;10040084;29;20056;-67
2022/10/01 21:38:08;;;;;;;11.43;3.60;;;;;;;;;;10037979;29;20094;-71
2022/10/01 21:43:12;;;;;;;19.55;4.47;;;;;;;;;;10066154;29;20052;-72
2022/10/01 21:48:24;;;;;;;14.68;4.30;;;;;;;;;;10077847;28;20091;-69
2022/10/01 21:53:39;;;;;;;16.52;4.47;;;;;;;;;;10061012;29;20083;-70
2022/10/01 21:58:48;;;;;;;19.38;6.45;;;;;;;;;;10078780;29;20078;-69
2022/10/01 22:03:49;;;;;;;13.93;4.45;;;;;;;;;;10078228;29;20102;-69
2022/10/01 22:08:55;;;;;;;13.23;4.65;;;;;;;;;;10077066;29;20109;-69
2022/10/01 22:13:54;;;;;;;11.43;3.95;;;;;;;;;;10078033;29;20087;-71
2022/10/01 22:18:55;;;;;;;9.27;3.60;;;;;;;;;;10077908;29;20078;-71
2022/10/01 22:24:01;;;;;;;9.57;3.10;;;;;;;;;;10075148;29;20055;-69
2022/10/01 22:29:01;;;;;;;5.85;3.00;;;;;;;;;;10077288;29;20110;-67
2022/10/01 22:34:03;;;;;;;12.60;4.72;;;;;;;;;;10077463;29;20461;-70
2022/10/01 22:39:02;;;;;;;12.32;3.60;;;;;;;;;;10075995;29;20047;-69
2022/10/01 22:44:02;;;;;;;10.88;3.67;;;;;;;;;;10059085;29;20062;-70
2022/10/01 22:49:03;;;;;;;7.03;3.75;;;;;;;;;;10076177;29;20533;-70
2022/10/01 22:54:09;;;;;;;9.80;3.92;;;;;;;;;;10075455;29;20461;-70
2022/10/01 22:59:11;;;;;;;8.13;2.80;;;;;;;;;;10077133;29;20101;-70
2022/10/01 23:04:16;;;;;;;8.02;3.03;;;;;;;;;;10076009;29;20638;-70
2022/10/01 23:09:18;;;;;;;10.23;4.35;;;;;;;;;;10075456;29;20094;-70
2022/10/01 23:14:22;;;;;;;9.10;3.35;;;;;;;;;;10076610;29;20059;-69
2022/10/01 23:19:34;;;;;;;9.10;3.03;;;;;;;;;;10058273;29;20094;-70
2022/10/01 23:24:40;;;;;;;5.63;2.53;;;;;;;;;;10075253;29;20086;-70
2022/10/01 23:29:57;;;;;;;5.00;2.80;;;;;;;;;;10075074;29;20095;-69
2022/10/01 23:35:00;;;;;;;6.80;3.22;;;;;;;;;;10057699;29;20066;-71
2022/10/01 23:40:00;;;;;;;6.82;2.83;;;;;;;;;;10058287;29;20440;-69
2022/10/01 23:45:04;;;;;;;6.30;2.83;;;;;;;;;;10074200;29;20051;-69
2022/10/01 23:50:05;;;;;;;4.88;1.95;;;;;;;;;;10074673;29;20531;-70
